METAR Data
IDs: Format: Raw Decoded Include TAF

Data at: 0625 UTC 23 Feb 2019

PASH 230556Z AUTO 20031G38KT 1SM -SN BR FEW044 00/M01 A2974 RMK AO2 PK WND 19038/0549 UPE35SNB35 SLP070 P0000 60000 T00001006 10000 21006 51010 FZRANO
PASH 230553Z AUTO 20030G38KT 1SM -SN BR FEW046 00/M01 A2973 RMK AO2 PK WND 19038/0549 UPE35SNB35 P0000 FZRANO
PASH 230535Z AUTO 20030KT 1 3/4SM -SN BR BKN046 00/M01 A2973 RMK AO2 PK WND 20035/0513 UPE35SNB35 P0000 FZRANO
PASH 230456Z AUTO 19028KT 2SM UP BR OVC050 00/M01 A2972 RMK AO2 PK WND 19033/0402 SLP066 P0000 T00001006 FZRANO
PASH 230435Z AUTO 19026KT 2SM UP BR OVC050 00/M01 A2972 RMK AO2 PK WND 19033/0402 P0000 FZRANO
PASH 230356Z AUTO 18026KT 1 1/2SM UP BR BKN039 OVC048 00/M01 A2971 RMK AO2 PK WND 18033/0301 UPB36SNE36 SLP061 P0000 T00001006 FZRANO
PASH 230347Z AUTO 18025KT 1 1/4SM UP BR OVC039 00/M01 A2971 RMK AO2 PK WND 18033/0301 UPB36SNE36 P0000 FZRANO
PASH 230340Z AUTO 18025KT 1SM UP BR BKN039 OVC050 00/M01 A2970 RMK AO2 PK WND 18033/0301 UPB36SNE36 P0000 FZRANO
PASH 230333Z AUTO 18026KT 3/4SM -SN BR BKN041 OVC050 00/M01 A2970 RMK AO2 PK WND 18033/0301 P0000 FZRANO
PASH 230317Z AUTO 18026KT 1/2SM -SN FG SCT010 BKN041 OVC050 00/M01 A2970 RMK AO2 PK WND 18033/0301 P0000 FZRANO
PASH 230256Z AUTO 18028KT 1/2SM -SN FG OVC010 00/M01 A2970 RMK AO2 PK WND 18033/0239 UPE13SNB13 CIG 008V013 SLP059 P0000 60000 T00001006 53002 FZRANO
PASH 230225Z AUTO 18029KT 1/2SM -SN FG OVC010 00/M01 A2970 RMK AO2 PK WND 17032/0220 UPE13SNB13 P0000 FZRANO
PASH 230215Z AUTO 17027G31KT 3/4SM -SN BR OVC010 00/M01 A2970 RMK AO2 PK WND 17031/0211 UPE13SNB13 P0000 FZRANO
PASH 230156Z AUTO 17024KT 1 1/2SM UP BR OVC010 00/M01 A2969 RMK AO2 PK WND 17030/0154 UPB30SNE30 SLP055 P0000 T00001006 FZRANO
PASH 230123Z AUTO 16022KT 1 1/2SM -SN BR BKN010 OVC015 00/M01 A2969 RMK AO2 PK WND 15028/0059 P0000 FZRANO
PASH 230111Z AUTO 15022KT 1SM -SN BR BKN012 OVC017 00/M01 A2969 RMK AO2 PK WND 15028/0059 P0000 FZRANO
PASH 230056Z AUTO 16024KT 1SM -SN BR SCT009 BKN015 00/M01 A2969 RMK AO2 PK WND 15031/0020 SLP055 P0000 T00001006 FZRANO
PASH 230050Z AUTO 15024KT 1SM -SN BR BKN012 M01/M01 A2969 RMK AO2 PK WND 15031/0020 P0000 FZRANO
PASH 230045Z AUTO 16024KT 3/4SM -SN BR BKN009 M01/M01 A2969 RMK AO2 PK WND 15031/0020 CIG 008V013 P0000 FZRANO
PASH 222356Z AUTO 16025G32KT 1/2SM -SN FZFG CLR M01/M01 A2970 RMK AO2 PK WND 16032/2348 SLP057 P0000 60000 T10061011 11006 21033 56013 FZRANO
PASH 222315Z AUTO 16027KT 1/2SM -SN FZFG FEW005 M01/M02 A2970 RMK AO2 PK WND 16032/2306 P0000 FZRANO
PASH 222305Z AUTO 15027KT 1/2SM -SN FZFG VV005 M01/M02 A2971 RMK AO2 PK WND 15032/2257 P0000 FZRANO
PASH 222256Z AUTO 15028KT 1/4SM SN FZFG FEW007 M01/M02 A2971 RMK AO2 PK WND 16035/2221 SLP063 P0000 T10111017 FZRANO
PASH 222242Z AUTO 15029KT 1/4SM SN FZFG FEW004 SCT012 M01/M02 A2971 RMK AO2 PK WND 16035/2221 P0000 FZRANO
PASH 222231Z AUTO 16030KT 1/4SM +SN FZFG VV004 M01/M02 A2972 RMK AO2 PK WND 16035/2221 P0000 FZRANO
PASH 222215Z AUTO 16032KT 1/4SM SN FZFG CLR M01/M02 A2972 RMK AO2 PK WND 16035/2215 P0000 FZRANO
PASH 222206Z AUTO 16029KT 1/2SM -SN FZFG CLR M01/M02 A2972 RMK AO2 PK WND 16032/2205 P0000 FZRANO
PASH 222156Z AUTO 15026KT 3/4SM -SN BR FEW110 M01/M02 A2972 RMK AO2 PK WND 15030/2133 SLP064 P0000 T10111022 FZRANO
PASH 222146Z AUTO 15024KT 1SM -SN BR FEW110 M01/M02 A2972 RMK AO2 PK WND 15030/2133 P0000 FZRANO
PASH 222122Z AUTO 15025KT 3/4SM -SN BR FEW035 SCT120 M01/M02 A2973 RMK AO2 PK WND 15029/2116 P0000 FZRANO
PASH 222113Z AUTO 15026KT 1SM -SN BR SCT037 M01/M02 A2973 RMK AO2 PK WND 15029/2113 P0000 FZRANO
PASH 222056Z AUTO 14020KT 2 1/2SM -SN BR OVC037 M02/M03 A2973 RMK AO2 VIS 1 1/2V5 SNE27B49 SLP070 P0000 60000 T10171028 58018 FZRANO
PASH 222020Z AUTO 12021KT 7SM -SN OVC037 M02/M03 A2975 RMK AO2 P0000 FZRANO
PASH 222008Z AUTO 13022KT 2SM -SN BR OVC037 M02/M03 A2975 RMK AO2 VIS 1 1/4V3 P0000 FZRANO
PASH 221956Z AUTO 13021KT 5SM -SN BR BKN039 OVC090 M02/M03 A2975 RMK AO2 PK WND 14029/1932 SNB33 SLP076 P0000 T10221033 FZRANO
PASH 221856Z AUTO 13017KT 10SM BKN041 OVC085 M02/M04 A2977 RMK AO2 SNE40 SLP083 P0000 T10221039 FZRANO
PASH 221756Z AUTO 13022KT 6SM -SN BR OVC070 M03/M04 A2979 RMK AO2 SNE16B54 SLP088 P0000 60000 T10331039 11033 21072 58027 FZRANO
PASH 221656Z AUTO 13019KT 5SM -SN BR FEW040 OVC060 M03/M04 A2982 RMK AO2 SLP097 P0000 T10331044 FZRANO
PASH 221603Z AUTO 13020KT 4SM -SN BR SCT036 OVC065 M04/M05 A2984 RMK AO2 P0000 FZRANO
PASH 221556Z AUTO 13020KT 2 1/2SM -SN BR FEW036 OVC065 M04/M05 A2984 RMK AO2 VIS 2V4 SNB08 SLP107 P0000 T10391050 FZRANO
PASH 221544Z AUTO 13022KT 2SM -SN BR FEW050 BKN060 OVC110 M04/M05 A2984 RMK AO2 VIS 1 3/4V4 SNB08 P0000 FZRANO
PASH 221529Z AUTO 13019KT 4SM -SN BR FEW039 BKN050 OVC060 M04/M06 A2985 RMK AO2 SNB08 P0000 FZRANO
PASH 221522Z AUTO 13020KT 2 1/2SM -SN BR SCT043 OVC055 M04/M06 A2986 RMK AO2 SNB08 P0000 FZRANO
PASH 221456Z AUTO 12018KT 9SM BKN036 OVC055 M04/M06 A2987 RMK AO2 SNB1358E53 SLP115 P0000 60000 T10441056 58024 FZRANO
PASH 221416Z AUTO 14018KT 4SM -SN BR BKN030 OVC036 M05/M06 A2989 RMK AO2 SNB1358 P0000 FZRANO
PASH 221409Z AUTO 13020KT 2 1/2SM -SN BR BKN030 OVC036 M05/M06 A2989 RMK AO2 SNB1358 P0000 FZRANO
PASH 221356Z AUTO 13018KT 6SM BR BKN028 OVC036 M05/M07 A2990 RMK AO2 SNB33E56 SLP126 P0000 T10501067 FZRANO
PASH 221256Z AUTO 11011KT 9SM OVC030 M06/M08 A2993 RMK AO2 SNB14E51 SLP135 P0000 T10611083 FZRANO
PASH 221156Z AUTO 15010KT 10SM CLR M07/M09 A2994 RMK AO2 SLP140 60000 T10721094 11039 21094 50006 FZRANO
PASH 221056Z AUTO 18010KT 10SM OVC033 M08/M10 A2995 RMK AO2 SNB0958E16 SLP142 P0000 T10831100 FZRANO
PASH 220956Z AUTO 17017KT 9SM OVC038 M07/M08 A2994 RMK AO2 SNE30 SLP141 P0000 T10671078 FZRANO
PASH 220856Z AUTO 18018KT 5SM -SN BR FEW031 M07/M08 A2992 RMK AO2 SLP134 P0000 60000 T10671078 410391100 51022 FZRANO
PASH 220756Z AUTO 18019KT 3SM -SN BR SCT033 SCT040 OVC049 M05/M06 A2990 RMK AO2 PK WND 19026/0719 SLP125 P0000 T10501056 FZRANO
PASH 220753Z AUTO 18019KT 2 1/2SM -SN BR SCT033 BKN040 OVC049 M05/M06 A2989 RMK AO2 PK WND 19026/0719 VIS 1 1/4V5 P0000 FZRANO
PASH 220734Z AUTO 19021KT 1 1/2SM -SN BR OVC033 M04/M06 A2988 RMK AO2 PK WND 19026/0719 P0000 FZRANO
PASH 220726Z AUTO 19023KT 1SM -SN BR OVC031 M04/M05 A2988 RMK AO2 PK WND 19026/0719 P0000 FZRANO
PASH 220656Z AUTO 18024KT 1 1/4SM -SN BR OVC035 M04/M05 A2986 RMK AO2 PK WND 18029/0636 SLP112 P0000 T10441050 FZRANO
PASH 220653Z AUTO 18021KT 1SM -SN BR OVC035 M04/M05 A2986 RMK AO2 PK WND 18029/0636 P0000 FZRANO
PASH 220637Z AUTO 18026KT 3/4SM -SN BR OVC037 M04/M05 A2985 RMK AO2 PK WND 18029/0636 P0000 FZRANO
PASH 220626Z AUTO 17024KT 1SM -SN BR OVC039 M04/M05 A2985 RMK AO2 PK WND 17028/0607 P0000 FZRANO
PASH 220608Z AUTO 17025KT 3/4SM -SN BR OVC043 M04/M05 A2985 RMK AO2 PK WND 17028/0607 P0000 FZRANO
PASH 220556Z AUTO 16025KT 1/2SM SN FZFG OVC041 M04/M05 A2984 RMK AO2 PK WND 16030/0552 SLP106 P0000 60000 T10391050 11039 21083 51007 FZRANO
PASH 220554Z AUTO 16025KT 3/4SM -SN BR OVC039 M04/M05 A2984 RMK AO2 PK WND 16030/0552 P0000 FZRANO
PASH 220544Z AUTO 16023KT 1SM -SN BR OVC039 M04/M05 A2984 RMK AO2 PK WND 15027/0458 P0000 FZRANO
PASH 220526Z AUTO 14022KT 1 1/4SM -SN BR FEW028 OVC033 M04/M05 A2983 RMK AO2 PK WND 15027/0458 P0000 FZRANO
PASH 220516Z AUTO 14023KT 1SM -SN BR FEW021 SCT028 OVC034 M04/M05 A2983 RMK AO2 PK WND 15027/0458 P0000 FZRANO
PASH 220509Z AUTO 15023KT 1 1/4SM -SN BR FEW021 OVC030 M04/M05 A2983 RMK AO2 PK WND 15027/0458 P0000 FZRANO
PASH 220456Z AUTO 15023KT 1SM -SN BR FEW014 BKN023 OVC036 M04/M05 A2983 RMK AO2 PK WND 15027/0456 SLP103 P0000 T10391050 FZRANO
PASH 220440Z AUTO 14020KT 1 1/4SM -SN BR BKN023 OVC028 M04/M05 A2983 RMK AO2 P0000 FZRANO
PASH 220408Z AUTO 13015KT 3/4SM -SN BR OVC017 M04/M05 A2982 RMK AO2 P0000 FZRANO
PASH 220356Z AUTO 12017KT 1SM -SN BR BKN015 OVC026 M04/M06 A2982 RMK AO2 PK WND 11026/0309 SLP098 P0000 T10441056 FZRANO
PASH 220322Z AUTO 12021KT 3/4SM -SN BR SCT018 BKN023 OVC028 M05/M06 A2981 RMK AO2 PK WND 11026/0309 P0000 FZRANO
PASH 220315Z AUTO 11022KT 1/2SM -SN FZFG BKN018 OVC024 M05/M06 A2981 RMK AO2 PK WND 11026/0309 P0000 FZRANO
PASH 220256Z AUTO 11021KT 3/4SM -SN BR OVC018 M06/M06 A2980 RMK AO2 SNB02 SLP093 P0000 60000 T10561061 53002 FZRANO
PASH 220249Z AUTO 11022KT 3/4SM -SN BR OVC018 M06/M07 A2980 RMK AO2 SNB02 P0000 FZRANO
PASH 220234Z AUTO 11022KT 1/2SM -SN FZFG BKN018 M06/M07 A2980 RMK AO2 SNB02 P0000 FZRANO
PASH 220223Z AUTO 11022KT 3/4SM -SN BR VV018 M06/M07 A2979 RMK AO2 SNB02 P0000 FZRANO
PASH 220215Z AUTO 11022KT 1 3/4SM -SN BR CLR M06/M07 A2980 RMK AO2 SNB02 P0000 FZRANO
PASH 220156Z AUTO 11021KT 9SM CLR M06/M08 A2980 RMK AO2 SLP091 T10611078 FZRANO
PASH 220056Z AUTO 09018KT 10SM CLR M08/M09 A2980 RMK AO2 SLP091 T10781094 FZRANO
PASH 212356Z AUTO 09020KT 5SM BR CLR M08/M10 A2979 RMK AO2 PK WND 10026/2300 UPE15SNB39E49 SLP090 P0000 60000 T10831100 11078 21100 52003 FZRANO
PASH 212256Z AUTO 10023KT 3SM UP BR CLR M08/M09 A2979 RMK AO2 PK WND 09028/2207 UPB51SNE51 SLP089 P0000 T10831094 FZRANO
PASH 212253Z AUTO 10023KT 3SM UP BR CLR M08/M09 A2979 RMK AO2 PK WND 09028/2207 UPB51SNE51 P0000 FZRANO
PASH 212240Z AUTO 10023KT 2 1/2SM -SN BR CLR M08/M09 A2979 RMK AO2 PK WND 09028/2207 VIS 2V4 P0000 FZRANO
PASH 212225Z AUTO 09023KT 1 1/4SM -SN BR CLR M08/M09 A2979 RMK AO2 PK WND 09028/2207 P0000 FZRANO
PASH 212156Z AUTO 09023KT 1SM -SN BR CLR M08/M10 A2979 RMK AO2 PK WND 09027/2150 SLP088 P0000 T10831100 FZRANO
PASH 212152Z AUTO 09024KT 1SM -SN BR CLR M08/M10 A2979 RMK AO2 PK WND 09027/2150 P0000 FZRANO
PASH 212133Z AUTO 09022KT 1 1/4SM -SN BR CLR M09/M11 A2979 RMK AO2 PK WND 09026/2119 P0000 FZRANO
PASH 212118Z AUTO 09023KT 1SM -SN BR CLR M09/M10 A2979 RMK AO2 PK WND 09026/2111 P0000 FZRANO
PASH 212056Z AUTO 09022KT 1 1/4SM -SN BR CLR M09/M10 A2979 RMK AO2 PK WND 09028/2008 SLP088 P0000 60000 T10891100 53014 FZRANO
PASH 212015Z AUTO 09022G28KT 1 1/4SM -SN BR CLR M09/M10 A2977 RMK AO2 PK WND 09028/2008 P0000 FZRANO
PASH 211956Z AUTO 09025KT 1SM -SN BR CLR M09/M10 A2977 RMK AO2 PK WND 09028/1952 SLP082 P0000 T10891100 FZRANO
PASH 211932Z AUTO 09022KT 1 1/4SM -SN BR CLR M09/M11 A2977 RMK AO2 PK WND 10028/1912 P0000 FZRANO
PASH 211856Z AUTO 09021KT 3/4SM -SN BR CLR M10/M11 A2976 RMK AO2 PK WND 09026/1849 SLP079 P0000 T11001111 FZRANO
PASH 211831Z AUTO 09023KT 3/4SM -SN BR CLR M10/M11 A2975 RMK AO2 PK WND 09026/1830 P0000 FZRANO